Time;durP1;ratioP1;P1;durP2;ratioP2;P2;SDS_P1;SDS_P2;PMS_P1;PMS_P2;Temp;Humidity;BMP_temperature;BMP_pressure;BME280_temperature;BME280_humidity;BME280_pressure;Samples;Min_cycle;Max_cycle;Signal;HPM_P1;HPM_P2
2020/12/24 00:02:11;;;;;;;38.35;7.82;;;;;;;9.70;85.13;95965.75;5013909;28;20049;-69
2020/12/24 00:04:37;;;;;;;62.25;8.52;;;;;;;9.66;85.23;95960.16;5014144;28;20505;-70
2020/12/24 00:07:03;;;;;;;42.67;6.43;;;;;;;9.61;85.08;95974.72;5013923;28;20041;-72
2020/12/24 00:09:30;;;;;;;62.00;8.20;;;;;;;9.57;85.25;95989.28;5013941;28;20049;-69
2020/12/24 00:11:56;;;;;;;37.00;7.57;;;;;;;9.56;85.43;95999.34;5014179;28;20044;-70
2020/12/24 00:14:23;;;;;;;42.85;7.70;;;;;;;9.57;85.30;96000.94;5013313;28;20038;-69
2020/12/24 00:16:49;;;;;;;31.85;7.05;;;;;;;9.60;85.60;96005.72;5014284;28;20054;-69
2020/12/24 00:19:16;;;;;;;35.20;7.60;;;;;;;9.62;85.76;96006.22;5015279;28;20046;-69
2020/12/24 00:21:42;;;;;;;35.60;7.80;;;;;;;9.63;85.47;96005.09;5014109;28;20061;-69
2020/12/24 00:24:08;;;;;;;48.97;9.23;;;;;;;9.61;85.84;95990.22;5013110;28;20042;-69
2020/12/24 00:26:35;;;;;;;28.75;7.20;;;;;;;9.60;86.12;95966.88;5014178;28;20046;-70
2020/12/24 00:29:06;;;;;;;31.33;7.65;;;;;;;9.63;86.18;95967.03;5012835;28;20567;-69
2020/12/24 00:31:33;;;;;;;67.32;8.88;;;;;;;9.65;86.25;95967.50;5013728;28;20066;-70
2020/12/24 00:33:59;;;;;;;40.33;7.93;;;;;;;9.62;86.10;95946.41;5013459;28;20134;-69
2020/12/24 00:36:25;;;;;;;42.15;8.10;;;;;;;9.57;85.94;95946.56;5013291;28;20042;-70
2020/12/24 00:38:51;;;;;;;37.55;8.48;;;;;;;9.58;86.20;95937.28;5013468;28;20053;-69
2020/12/24 00:41:17;;;;;;;54.40;10.75;;;;;;;9.57;86.15;95946.56;5013205;28;20053;-71
2020/12/24 00:43:44;;;;;;;48.85;9.07;;;;;;;9.60;86.08;95947.84;5013230;28;20050;-71
2020/12/24 00:46:10;;;;;;;54.60;10.30;;;;;;;9.59;86.12;95959.84;5013032;28;20086;-71
2020/12/24 00:48:36;;;;;;;47.33;8.70;;;;;;;9.59;86.16;95951.69;5014787;28;20049;-69
2020/12/24 00:51:02;;;;;;;36.13;8.38;;;;;;;9.59;86.08;95960.63;5012090;28;20038;-70
2020/12/24 00:53:28;;;;;;;35.50;8.65;;;;;;;9.60;86.15;95983.19;5013198;28;20129;-69
2020/12/24 00:55:54;;;;;;;34.17;8.70;;;;;;;9.60;86.29;95983.19;5013441;28;20049;-69
2020/12/24 00:58:20;;;;;;;47.28;8.75;;;;;;;9.60;86.46;95992.13;5028222;28;20042;-69
2020/12/24 01:00:47;;;;;;;43.15;8.90;;;;;;;9.61;86.43;95982.88;5033139;28;20045;-70
2020/12/24 01:03:13;;;;;;;47.03;9.65;;;;;;;9.58;86.23;95980.78;5031950;28;20052;-70
2020/12/24 01:05:39;;;;;;;33.58;8.80;;;;;;;9.63;86.36;95983.34;5032967;28;20045;-69
2020/12/24 01:08:05;;;;;;;34.35;8.07;;;;;;;9.61;86.15;95985.59;5032169;28;20133;-69
2020/12/24 01:10:31;;;;;;;36.10;8.88;;;;;;;9.62;86.49;95989.91;5032810;28;20048;-69
2020/12/24 01:12:57;;;;;;;26.45;8.55;;;;;;;9.64;86.19;95987.66;5032500;28;20049;-70
2020/12/24 01:15:23;;;;;;;41.10;9.43;;;;;;;9.56;86.30;95988.47;5032035;28;20041;-71
2020/12/24 01:17:50;;;;;;;48.50;9.85;;;;;;;9.61;86.54;95993.75;5032106;28;20417;-70
2020/12/24 01:20:16;;;;;;;45.45;9.60;;;;;;;9.66;86.30;96003.66;5016654;28;20113;-70
2020/12/24 01:22:42;;;;;;;36.30;8.90;;;;;;;9.68;86.37;96002.22;5012680;28;20133;-69
2020/12/24 01:25:08;;;;;;;42.33;9.13;;;;;;;9.72;86.07;95996.16;5012466;28;20103;-69
2020/12/24 01:27:35;;;;;;;34.08;9.07;;;;;;;9.73;85.96;95997.75;5012432;28;20409;-69
2020/12/24 01:30:01;;;;;;;38.55;9.05;;;;;;;9.71;86.12;95995.34;5012315;28;20057;-69
2020/12/24 01:32:27;;;;;;;38.92;8.20;;;;;;;9.72;86.25;95985.28;5012510;28;20042;-69
2020/12/24 01:34:54;;;;;;;45.63;9.68;;;;;;;9.73;86.19;95989.59;5011943;28;20050;-69
2020/12/24 01:37:20;;;;;;;38.88;9.05;;;;;;;9.71;86.00;95989.91;5011610;28;20049;-69
2020/12/24 01:39:46;;;;;;;59.42;9.88;;;;;;;9.66;86.03;95988.16;5012772;28;20113;-70
2020/12/24 01:42:14;;;;;;;38.03;9.55;;;;;;;9.63;86.18;95996.94;5014521;28;20049;-70
2020/12/24 01:44:40;;;;;;;38.20;8.98;;;;;;;9.62;86.35;95987.19;5010801;28;20064;-69
2020/12/24 01:47:06;;;;;;;48.72;9.82;;;;;;;9.67;86.19;95999.81;5011353;28;20104;-70
2020/12/24 01:49:32;;;;;;;27.88;9.38;;;;;;;9.68;85.88;95991.34;5012473;28;20046;-71
2020/12/24 01:51:59;;;;;;;46.05;10.07;;;;;;;9.67;86.16;95988.94;5012316;28;20046;-69
2020/12/24 01:54:27;;;;;;;43.85;9.27;;;;;;;9.66;86.19;95985.44;5011910;28;20501;-70
2020/12/24 01:56:53;;;;;;;37.35;8.63;;;;;;;9.68;86.46;95980.47;5011502;28;20112;-69
2020/12/24 01:59:19;;;;;;;49.33;10.25;;;;;;;9.68;86.48;95980.47;5011613;28;20100;-70
2020/12/24 02:01:47;;;;;;;37.05;8.95;;;;;;;9.70;86.18;95965.75;5012210;28;20050;-69
2020/12/24 02:04:13;;;;;;;43.63;9.70;;;;;;;9.66;86.12;95958.25;5011168;28;20505;-70
2020/12/24 02:06:40;;;;;;;39.75;8.77;;;;;;;9.66;86.11;95954.72;5011648;28;20046;-71
2020/12/24 02:09:07;;;;;;;45.33;9.82;;;;;;;9.66;86.36;95949.28;5011599;28;20050;-71
2020/12/24 02:11:34;;;;;;;44.65;9.20;;;;;;;9.65;86.27;95937.59;5011794;28;20057;-71
2020/12/24 02:14:00;;;;;;;54.42;9.82;;;;;;;9.63;86.03;95939.84;5028401;28;20053;-70
2020/12/24 02:16:26;;;;;;;37.17;8.20;;;;;;;9.60;86.22;95945.91;5031455;28;20048;-71
2020/12/24 02:18:52;;;;;;;53.33;8.23;;;;;;;9.60;86.37;95945.91;5031365;28;20136;-70
2020/12/24 02:21:19;;;;;;;39.28;7.55;;;;;;;9.54;86.71;95952.63;5030848;28;20516;-71
2020/12/24 02:23:45;;;;;;;47.58;7.75;;;;;;;9.49;86.89;95950.09;5031505;28;20053;-70
2020/12/24 02:26:12;;;;;;;37.05;7.25;;;;;;;9.44;87.41;95958.41;5031072;28;20045;-71
2020/12/24 02:28:38;;;;;;;58.53;7.65;;;;;;;9.36;87.40;95961.94;5031306;28;20077;-69
2020/12/24 02:31:04;;;;;;;35.13;7.25;;;;;;;9.27;87.95;95958.41;5031052;28;20049;-70
2020/12/24 02:33:31;;;;;;;36.72;6.78;;;;;;;9.26;88.11;95945.94;5030954;28;20052;-69
2020/12/24 02:35:57;;;;;;;37.53;6.13;;;;;;;9.18;88.52;95933.13;5031665;28;20060;-71
2020/12/24 02:38:24;;;;;;;49.10;6.43;;;;;;;9.04;88.67;95930.59;5030171;28;20037;-70
2020/12/24 02:40:50;;;;;;;34.70;5.65;;;;;;;9.00;88.89;95938.56;5031502;28;20065;-69
2020/12/24 02:43:16;;;;;;;52.90;6.80;;;;;;;9.05;88.75;95938.41;5032282;28;20389;-70
2020/12/24 02:45:42;;;;;;;31.63;4.57;;;;;;;8.92;88.85;95936.63;5031408;28;20497;-69
2020/12/24 02:48:08;;;;;;;58.40;5.43;;;;;;;8.77;88.90;95931.66;5029597;28;20048;-70
2020/12/24 02:50:35;;;;;;;26.85;3.58;;;;;;;8.75;88.86;95939.31;5030823;28;20037;-70
2020/12/24 02:53:01;;;;;;;18.30;3.05;;;;;;;8.76;88.73;95927.34;5030207;28;20041;-70
2020/12/24 02:55:28;;;;;;;28.27;2.53;;;;;;;8.81;88.26;95932.63;5030919;28;20097;-70
2020/12/24 02:57:54;;;;;;;22.27;2.25;;;;;;;8.81;87.83;95941.56;5030942;28;20046;-69
2020/12/24 03:00:20;;;;;;;58.00;3.92;;;;;;;8.74;87.55;95932.28;5030499;28;20045;-69
2020/12/24 03:02:46;;;;;;;22.10;2.20;;;;;;;8.68;88.01;95925.41;5030954;28;20053;-70
2020/12/24 03:05:12;;;;;;;54.97;3.72;;;;;;;8.70;87.72;95918.53;5030138;28;20037;-70
2020/12/24 03:07:38;;;;;;;36.28;2.50;;;;;;;8.70;87.65;95913.13;5030526;28;20049;-69
2020/12/24 03:10:04;;;;;;;17.98;2.05;;;;;;;8.63;87.66;95912.78;5029780;28;20065;-69
2020/12/24 03:12:31;;;;;;;35.63;2.30;;;;;;;8.54;88.10;95920.91;5030798;28;20497;-69
2020/12/24 03:14:57;;;;;;;52.15;3.03;;;;;;;8.45;88.46;95919.28;5029777;28;20045;-69
2020/12/24 03:17:23;;;;;;;26.00;1.98;;;;;;;8.51;88.32;95913.41;5030194;28;20037;-69
2020/12/24 03:19:49;;;;;;;22.98;2.10;;;;;;;8.54;88.17;95910.03;5030108;28;20049;-69
2020/12/24 03:22:15;;;;;;;29.80;2.20;;;;;;;8.50;88.63;95911.78;5030474;28;20053;-69
2020/12/24 03:24:41;;;;;;;21.98;1.95;;;;;;;8.58;88.53;95908.31;5031040;28;20053;-69
2020/12/24 03:27:07;;;;;;;26.85;2.28;;;;;;;8.56;87.98;95907.84;5030076;28;20069;-70
2020/12/24 03:29:34;;;;;;;24.77;2.13;;;;;;;8.55;88.14;95906.22;5030892;28;20041;-69
2020/12/24 03:32:00;;;;;;;50.55;3.20;;;;;;;8.58;87.86;95911.03;5030988;28;20049;-69
2020/12/24 03:34:26;;;;;;;35.70;2.40;;;;;;;8.57;88.24;95908.63;5030713;28;20041;-69
2020/12/24 03:36:52;;;;;;;30.77;2.25;;;;;;;8.57;87.72;95912.16;5030879;28;20049;-69
2020/12/24 03:39:18;;;;;;;33.45;2.20;;;;;;;8.51;88.14;95916.13;5030414;28;20187;-69
2020/12/24 03:41:44;;;;;;;27.17;1.95;;;;;;;8.54;88.05;95907.34;5031067;28;20050;-69
2020/12/24 03:44:10;;;;;;;31.05;2.22;;;;;;;8.52;88.15;95906.06;5029544;28;20084;-68
2020/12/24 03:46:38;;;;;;;29.25;1.90;;;;;;;8.48;88.28;95905.88;5030825;28;20053;-69
2020/12/24 03:49:04;;;;;;;33.30;2.10;;;;;;;8.45;88.26;95906.50;5029961;28;20049;-69
2020/12/24 03:51:30;;;;;;;37.17;2.38;;;;;;;8.47;88.15;95898.06;5029075;28;20042;-69
2020/12/24 03:53:56;;;;;;;27.55;1.88;;;;;;;8.50;87.98;95898.22;5030836;28;20045;-69
2020/12/24 03:56:22;;;;;;;35.15;2.08;;;;;;;8.54;88.16;95891.06;5029406;28;20077;-69
2020/12/24 03:58:48;;;;;;;20.98;1.70;;;;;;;8.51;87.81;95894.41;5030624;28;20069;-69
2020/12/24 04:01:14;;;;;;;34.42;2.00;;;;;;;8.47;87.93;95890.72;5029187;28;20111;-69
2020/12/24 04:03:41;;;;;;;21.02;1.70;;;;;;;8.49;88.02;95885.78;5030933;28;20069;-69
2020/12/24 04:06:07;;;;;;;22.58;1.73;;;;;;;8.46;88.04;95891.84;5029802;28;20049;-69
2020/12/24 04:08:33;;;;;;;22.85;1.75;;;;;;;8.30;88.37;95901.47;5030653;28;20434;-68
2020/12/24 04:10:58;;;;;;;32.78;2.17;;;;;;;8.30;88.67;95898.75;5030604;28;20132;-68
2020/12/24 04:13:24;;;;;;;42.55;2.47;;;;;;;8.30;88.89;95898.75;5028013;28;20125;-69
2020/12/24 04:15:50;;;;;;;21.98;1.73;;;;;;;8.39;88.49;95905.06;5010672;28;20382;-69
2020/12/24 04:18:16;;;;;;;37.47;2.40;;;;;;;8.36;88.26;95908.41;5009924;28;20061;-69
2020/12/24 04:20:43;;;;;;;20.02;1.75;;;;;;;8.28;88.74;95901.00;5010680;28;20692;-68
2020/12/24 04:23:09;;;;;;;22.65;2.00;;;;;;;8.28;88.72;95906.44;5010241;28;20624;-68
2020/12/24 04:25:35;;;;;;;21.27;2.25;;;;;;;8.25;89.23;95901.66;5010693;28;20100;-69
2020/12/24 04:28:01;;;;;;;25.35;2.42;;;;;;;8.17;89.46;95899.69;5010630;28;20049;-69
2020/12/24 04:30:27;;;;;;;28.80;2.50;;;;;;;8.06;90.11;95910.00;5011524;28;20576;-69
2020/12/24 04:32:53;;;;;;;24.52;2.78;;;;;;;8.02;90.33;95914.47;5014218;28;20053;-69
2020/12/24 04:35:19;;;;;;;37.65;3.03;;;;;;;7.98;90.97;95913.47;5013708;28;20045;-69
2020/12/24 04:37:46;;;;;;;23.65;2.60;;;;;;;7.94;91.08;95913.31;5014131;28;20053;-69
2020/12/24 04:40:12;;;;;;;22.48;2.67;;;;;;;7.92;91.29;95915.53;5013269;28;20624;-69
2020/12/24 04:42:40;;;;;;;34.85;2.83;;;;;;;7.96;90.81;95927.34;5013799;28;20073;-69
2020/12/24 04:45:07;;;;;;;38.63;2.63;;;;;;;7.90;91.00;95931.31;5012872;28;20528;-69
2020/12/24 04:47:36;;;;;;;20.30;1.50;;;;;;;7.90;90.57;95936.72;5023135;28;20508;-69
2020/12/24 04:50:03;;;;;;;24.50;1.58;;;;;;;7.82;90.18;95932.06;5033099;28;20049;-69
2020/12/24 04:52:29;;;;;;;30.92;1.65;;;;;;;7.82;89.86;95929.34;5033642;28;20049;-69
2020/12/24 04:54:57;;;;;;;36.92;1.83;;;;;;;7.76;89.53;95941.44;5032541;28;20053;-69
2020/12/24 04:57:23;;;;;;;50.97;2.25;;;;;;;7.63;89.19;95939.59;5032594;28;20500;-69
2020/12/24 04:59:52;;;;;;;33.20;1.48;;;;;;;7.56;89.43;95938.09;5032439;28;20045;-69
2020/12/24 05:02:18;;;;;;;41.25;1.98;;;;;;;7.53;89.03;95935.22;5032398;28;20057;-69
2020/12/24 05:04:44;;;;;;;23.33;1.13;;;;;;;7.50;88.92;95925.78;5033390;28;20045;-69
2020/12/24 05:07:10;;;;;;;19.27;0.90;;;;;;;7.48;89.23;95936.16;5032805;28;20045;-69
2020/12/24 05:09:36;;;;;;;23.70;1.13;;;;;;;7.43;88.94;95938.97;5032766;28;20042;-69
2020/12/24 05:12:03;;;;;;;22.05;1.05;;;;;;;7.40;88.90;95936.88;5032554;28;20071;-71
2020/12/24 05:14:30;;;;;;;24.30;1.17;;;;;;;7.34;88.96;95954.38;5036339;28;20053;-69
2020/12/24 05:16:58;;;;;;;24.33;1.23;;;;;;;7.30;89.33;95961.50;5032686;28;20409;-69
2020/12/24 05:19:24;;;;;;;27.25;1.17;;;;;;;7.10;87.09;95960.06;5032338;28;20505;-69
2020/12/24 05:21:50;;;;;;;55.97;2.45;;;;;;;6.96;85.62;95964.72;5031740;28;20046;-69
2020/12/24 05:24:24;;;;;;;24.35;1.05;;;;;;;6.82;85.47;95969.34;5032515;28;20075;-69
2020/12/24 05:26:51;;;;;;;24.05;1.17;;;;;;;6.71;85.94;95966.03;5032482;28;20048;-69
2020/12/24 05:29:18;;;;;;;26.48;1.48;;;;;;;6.70;86.27;95972.56;5032197;28;20060;-69
2020/12/24 05:31:44;;;;;;;28.52;1.35;;;;;;;6.61;86.44;95966.25;5031588;28;20057;-69
2020/12/24 05:34:21;;;;;;;16.77;0.90;;;;;;;6.64;87.00;95966.47;5032300;28;20069;-69
2020/12/24 05:36:47;;;;;;;21.65;1.25;;;;;;;6.60;87.29;95962.75;5032487;28;20395;-69
2020/12/24 05:39:13;;;;;;;24.38;1.10;;;;;;;6.58;87.10;95964.13;5031796;28;20057;-69
2020/12/24 05:41:40;;;;;;;30.70;1.70;;;;;;;6.62;87.66;95970.56;5030895;28;20132;-69
2020/12/24 05:44:08;;;;;;;25.27;1.35;;;;;;;6.68;87.03;95963.94;5035560;28;20057;-70
2020/12/24 05:46:45;;;;;;;32.75;1.48;;;;;;;6.62;87.46;95970.56;5032197;28;20136;-70
2020/12/24 05:49:13;;;;;;;41.05;2.20;;;;;;;6.63;87.63;95977.56;5031933;28;20416;-70
2020/12/24 05:51:40;;;;;;;23.33;1.15;;;;;;;6.48;87.63;95978.69;5032380;28;20057;-68
2020/12/24 05:54:06;;;;;;;22.73;1.33;;;;;;;6.52;87.58;95982.38;5031958;28;20516;-69
2020/12/24 05:56:36;;;;;;;16.08;0.95;;;;;;;6.54;87.87;95981.00;5032170;28;20033;-68
2020/12/24 05:59:04;;;;;;;24.23;1.30;;;;;;;6.51;87.88;95978.88;5031739;28;20042;-70
2020/12/24 06:01:37;;;;;;;21.35;1.17;;;;;;;6.39;87.70;95983.19;5031396;28;20459;-69
2020/12/24 06:04:04;;;;;;;;;;;;;;;6.31;86.90;95984.69;5031447;28;20045;-70
2020/12/24 06:06:47;;;;;;;35.75;1.80;;;;;;;6.26;87.30;95984.78;5031890;28;19967;-69
2020/12/24 06:09:19;;;;;;;37.05;1.55;;;;;;;6.22;87.47;95970.28;5031663;28;20180;-69
2020/12/24 06:11:54;;;;;;;32.70;1.70;;;;;;;6.24;87.93;95981.56;5031942;28;20052;-69
2020/12/24 06:14:31;;;;;;;17.75;1.10;;;;;;;6.27;87.63;95981.00;5034967;28;20041;-68
2020/12/24 06:17:06;;;;;;;21.75;1.17;;;;;;;6.20;88.05;95984.06;5031659;28;20112;-68
2020/12/24 06:19:39;;;;;;;53.08;2.38;;;;;;;6.21;88.35;95982.16;5031620;28;20409;-68
2020/12/24 06:22:07;;;;;;;23.63;1.08;;;;;;;6.17;88.20;95987.38;5030670;28;20050;-69
2020/12/24 06:24:34;;;;;;;24.60;1.30;;;;;;;6.20;88.34;95977.88;5031822;28;20566;-69
2020/12/24 06:27:03;;;;;;;35.63;1.65;;;;;;;6.18;88.91;95975.47;5031400;28;20465;-69
2020/12/24 06:29:33;;;;;;;22.40;1.30;;;;;;;6.12;89.28;95967.75;5031504;28;20048;-69
2020/12/24 06:32:01;;;;;;;21.92;1.80;;;;;;;6.18;89.52;95971.97;5031512;28;20045;-69
2020/12/24 06:34:29;;;;;;;26.35;1.38;;;;;;;6.16;89.63;95957.94;5031367;28;20049;-69
2020/12/24 06:36:56;;;;;;;32.33;1.73;;;;;;;6.11;89.41;95953.44;5031435;28;20054;-69
2020/12/24 06:39:39;;;;;;;25.73;1.30;;;;;;;6.11;89.72;95941.81;5031331;28;20038;-69
2020/12/24 06:42:06;;;;;;;31.13;1.60;;;;;;;6.11;89.68;95939.94;5030818;28;20084;-69
2020/12/24 06:44:48;;;;;;;20.55;1.20;;;;;;;6.06;89.96;95950.84;5030989;28;20052;-68
2020/12/24 06:47:15;;;;;;;34.22;1.65;;;;;;;6.03;89.30;95942.50;5037939;28;20057;-69
2020/12/24 06:49:42;;;;;;;22.38;1.02;;;;;;;5.94;88.82;95948.59;5051258;28;20052;-69
2020/12/24 06:52:09;;;;;;;31.20;1.55;;;;;;;5.80;88.46;95950.47;5049780;28;20096;-70
2020/12/24 06:54:35;;;;;;;36.50;1.63;;;;;;;5.77;88.04;95951.03;5050636;28;20037;-69
2020/12/24 06:57:21;;;;;;;48.50;1.90;;;;;;;5.77;87.54;95945.63;5049919;28;20049;-69
2020/12/24 06:59:48;;;;;;;43.13;1.85;;;;;;;5.70;86.36;95953.34;5050266;28;20041;-69
2020/12/24 07:02:24;;;;;;;25.02;1.17;;;;;;;5.79;86.16;95954.22;5050060;28;20052;-69
2020/12/24 07:04:51;;;;;;;16.70;0.90;;;;;;;5.81;84.94;95945.84;5050957;28;20049;-69
2020/12/24 07:07:45;;;;;;;24.85;1.23;;;;;;;5.93;84.50;95955.09;5050394;28;20041;-68
2020/12/24 07:10:42;;;;;;;18.17;0.98;;;;;;;6.04;83.76;95938.69;5050560;28;20056;-69
2020/12/24 07:13:08;;;;;;;31.70;1.48;;;;;;;6.12;83.52;95941.53;5046399;28;20045;-69
2020/12/24 07:15:42;;;;;;;32.35;1.58;;;;;;;6.07;82.76;95944.31;5049676;28;20045;-69
2020/12/24 07:18:12;;;;;;;20.67;1.05;;;;;;;5.94;83.08;95935.09;5050429;28;20102;-69
2020/12/24 07:20:39;;;;;;;24.63;1.42;;;;;;;5.89;82.79;95931.63;5050884;28;20049;-68
2020/12/24 07:23:06;;;;;;;31.25;1.45;;;;;;;5.97;82.69;95917.47;5050309;28;20045;-69
2020/12/24 07:25:35;;;;;;;34.05;1.55;;;;;;;5.88;81.90;95920.03;5050774;28;20040;-69
2020/12/24 07:28:02;;;;;;;22.77;1.35;;;;;;;5.86;81.85;95924.94;5050526;28;20622;-69
2020/12/24 07:30:28;;;;;;;42.42;1.98;;;;;;;5.87;81.52;95940.06;5050534;28;20049;-68
2020/12/24 07:32:56;;;;;;;22.15;1.17;;;;;;;5.88;80.47;95933.53;5050933;28;20053;-68
2020/12/24 07:35:22;;;;;;;31.90;1.55;;;;;;;5.86;79.27;95933.06;5049406;28;20064;-68
2020/12/24 07:37:49;;;;;;;25.17;1.38;;;;;;;5.93;79.88;95933.47;5050169;28;20049;-68
2020/12/24 07:40:17;;;;;;;68.60;2.83;;;;;;;5.98;79.69;95919.06;5045514;28;20072;-68
2020/12/24 07:42:43;;;;;;;104.13;4.00;;;;;;;5.99;78.42;95916.06;5028513;28;20810;-67
2020/12/24 07:45:11;;;;;;;56.28;2.38;;;;;;;6.02;78.64;95911.97;5032896;28;20049;-68
2020/12/24 07:47:37;;;;;;;57.80;2.38;;;;;;;5.94;78.73;95929.69;5047083;28;20140;-68
2020/12/24 07:50:03;;;;;;;71.22;2.97;;;;;;;5.97;78.89;95912.88;5046297;28;20041;-68
2020/12/24 07:52:29;;;;;;;63.42;2.80;;;;;;;5.98;78.17;95913.66;5047150;28;20049;-67
2020/12/24 07:55:09;;;;;;;21.73;1.23;;;;;;;5.96;78.47;95908.56;5048153;28;20049;-67
2020/12/24 07:57:35;;;;;;;31.15;1.70;;;;;;;5.99;78.31;95916.06;5050556;28;20037;-67
2020/12/24 08:00:02;;;;;;;19.50;1.00;;;;;;;6.01;78.48;95911.19;5050070;28;20045;-68
2020/12/24 08:02:28;;;;;;;34.47;1.70;;;;;;;6.00;78.47;95906.88;5050426;28;20063;-67
2020/12/24 08:04:54;;;;;;;24.02;1.15;;;;;;;6.04;77.95;95900.84;5051606;28;20496;-67
2020/12/24 08:07:20;;;;;;;20.73;1.30;;;;;;;6.05;77.91;95902.47;5053718;28;20056;-67
2020/12/24 08:09:46;;;;;;;10.63;0.80;;;;;;;6.03;77.91;95910.06;5054428;28;20041;-67
2020/12/24 08:12:20;;;;;;;13.07;1.08;;;;;;;6.02;76.49;95903.88;5053973;28;20049;-67
2020/12/24 08:14:47;;;;;;;34.88;1.73;;;;;;;6.09;76.76;95895.34;5049044;28;20071;-67
2020/12/24 08:17:25;;;;;;;48.03;2.13;;;;;;;6.05;75.72;95902.47;5053214;28;20064;-68
2020/12/24 08:19:59;;;;;;;24.55;1.25;;;;;;;6.09;75.36;95892.66;5053916;28;20049;-67
2020/12/24 08:22:34;;;;;;;68.57;3.05;;;;;;;6.10;75.22;95894.25;5052643;28;20072;-67
2020/12/24 08:25:00;;;;;;;22.05;1.20;;;;;;;6.21;75.06;95901.06;5054358;28;20071;-67
2020/12/24 08:27:27;;;;;;;28.70;1.35;;;;;;;6.23;74.46;95899.66;5053487;28;20040;-67
2020/12/24 08:29:58;;;;;;;25.60;1.42;;;;;;;6.26;74.64;95882.03;5054027;28;20052;-67
2020/12/24 08:32:24;;;;;;;26.40;1.60;;;;;;;6.33;75.28;95890.56;5053422;28;20515;-67
2020/12/24 08:34:50;;;;;;;28.83;1.48;;;;;;;6.42;75.15;95875.22;5053885;28;20049;-67
2020/12/24 08:37:26;;;;;;;26.15;1.30;;;;;;;6.41;75.16;95870.09;5053508;28;20045;-66
2020/12/24 08:39:52;;;;;;;38.75;1.95;;;;;;;6.43;74.81;95874.13;5053376;28;20048;-67
2020/12/24 08:42:23;;;;;;;26.40;1.33;;;;;;;6.36;74.36;95871.00;5053109;28;20124;-67
2020/12/24 08:44:55;;;;;;;25.63;1.42;;;;;;;6.27;73.99;95864.72;5049536;28;20057;-67
2020/12/24 08:47:22;;;;;;;29.92;1.42;;;;;;;6.40;74.82;95866.59;5053098;28;20405;-67
2020/12/24 08:49:48;;;;;;;24.67;1.40;;;;;;;6.40;74.93;95863.88;5053663;28;20041;-66
2020/12/24 08:52:17;;;;;;;37.38;2.05;;;;;;;6.41;74.03;95862.78;5052968;28;20049;-69
2020/12/24 08:54:56;;;;;;;21.80;1.45;;;;;;;6.40;74.34;95861.19;5053550;28;20048;-68
2020/12/24 08:57:22;;;;;;;33.80;1.83;;;;;;;6.42;73.73;95848.19;5052870;28;20052;-68
2020/12/24 08:59:53;;;;;;;20.20;1.15;;;;;;;6.47;73.76;95848.06;5053403;28;20048;-68
2020/12/24 09:02:27;;;;;;;35.80;2.50;;;;;;;6.56;74.00;95850.03;5052943;28;20049;-68
2020/12/24 09:04:54;;;;;;;16.48;1.23;;;;;;;6.51;73.34;95846.34;5053315;28;20045;-68
2020/12/24 09:07:27;;;;;;;37.65;1.83;;;;;;;6.54;73.19;95834.91;5052703;28;20523;-68
2020/12/24 09:10:08;;;;;;;25.10;1.50;;;;;;;6.50;72.90;95823.09;5053258;28;20045;-68
2020/12/24 09:12:35;;;;;;;36.25;2.40;;;;;;;6.49;73.28;95840.44;5051329;28;20496;-68
2020/12/24 09:15:03;;;;;;;28.55;2.53;;;;;;;6.62;73.72;95825.25;5050445;28;20049;-68
2020/12/24 09:17:30;;;;;;;26.55;1.48;;;;;;;6.66;73.05;95836.28;5052899;28;20041;-68
2020/12/24 09:20:01;;;;;;;34.95;1.67;;;;;;;6.53;72.76;95844.16;5053154;28;20052;-68
2020/12/24 09:22:27;;;;;;;43.42;2.28;;;;;;;6.52;73.15;95849.84;5052842;28;20048;-68
2020/12/24 09:24:53;;;;;;;22.30;1.27;;;;;;;6.50;73.04;95839.31;5053013;28;20045;-68
2020/12/24 09:27:19;;;;;;;38.83;1.75;;;;;;;6.40;73.31;95834.16;5052231;28;20073;-68
2020/12/24 09:29:46;;;;;;;30.20;1.40;;;;;;;6.35;73.04;95825.34;5052534;28;20496;-68
2020/12/24 09:32:12;;;;;;;21.10;1.40;;;;;;;6.42;72.36;95826.53;5052404;28;20057;-66
2020/12/24 09:34:39;;;;;;;30.67;1.90;;;;;;;6.31;72.49;95830.53;5052754;28;20049;-68
2020/12/24 09:37:05;;;;;;;23.60;1.45;;;;;;;6.18;72.68;95825.97;5052237;28;20049;-69
2020/12/24 09:39:31;;;;;;;27.02;1.40;;;;;;;6.17;73.05;95825.19;5052595;28;20049;-68
2020/12/24 09:41:57;;;;;;;33.08;1.77;;;;;;;6.15;73.40;95821.97;5052356;28;20049;-68
2020/12/24 09:44:23;;;;;;;36.20;1.75;;;;;;;6.14;73.13;95819.56;5047269;28;20048;-68
2020/12/24 09:46:50;;;;;;;36.72;1.83;;;;;;;6.20;73.13;95818.34;5052308;28;20122;-68
2020/12/24 09:49:17;;;;;;;27.50;1.52;;;;;;;6.25;73.59;95820.94;5052013;28;20049;-68
2020/12/24 09:51:44;;;;;;;23.35;1.40;;;;;;;6.22;72.39;95816.16;5052486;28;20056;-68
2020/12/24 09:54:10;;;;;;;29.20;1.60;;;;;;;6.36;73.13;95811.50;5051695;28;20053;-68
2020/12/24 09:56:36;;;;;;;21.75;1.40;;;;;;;6.34;73.11;95807.53;5052410;28;20127;-68
2020/12/24 09:59:02;;;;;;;32.35;1.60;;;;;;;6.44;72.75;95799.19;5051658;28;20531;-69
2020/12/24 10:01:28;;;;;;;23.73;1.33;;;;;;;6.42;72.86;95804.06;5052198;28;20053;-68
2020/12/24 10:03:54;;;;;;;21.88;1.33;;;;;;;6.51;72.17;95786.81;5052200;28;20045;-68
2020/12/24 10:06:20;;;;;;;34.60;1.77;;;;;;;6.56;72.84;95787.81;5051731;28;20049;-68
2020/12/24 10:08:47;;;;;;;26.95;1.38;;;;;;;6.55;72.60;95781.63;5052040;28;20480;-68
2020/12/24 10:11:14;;;;;;;20.02;1.15;;;;;;;6.60;72.76;95773.38;5051539;28;20556;-68
2020/12/24 10:13:40;;;;;;;29.65;1.52;;;;;;;6.70;72.86;95785.88;5047214;28;20049;-68
2020/12/24 10:16:07;;;;;;;28.98;1.42;;;;;;;6.65;72.50;95792.19;5051687;28;20041;-68
2020/12/24 10:18:33;;;;;;;44.78;2.10;;;;;;;6.65;72.81;95783.28;5051837;28;20048;-68
2020/12/24 10:20:59;;;;;;;21.90;1.13;;;;;;;6.66;72.34;95774.06;5052088;28;20564;-68
2020/12/24 10:23:25;;;;;;;29.00;1.58;;;;;;;6.68;72.54;95769.13;5051345;28;20044;-67
2020/12/24 10:25:52;;;;;;;38.03;2.08;;;;;;;6.70;72.48;95764.22;5051672;28;20045;-68
2020/12/24 10:28:18;;;;;;;39.65;1.85;;;;;;;6.78;72.46;95760.75;5050437;28;20060;-66
2020/12/24 10:30:44;;;;;;;24.48;1.50;;;;;;;6.89;71.99;95759.44;5051703;28;20056;-66
2020/12/24 10:33:10;;;;;;;30.42;1.65;;;;;;;6.97;71.52;95755.16;5050523;28;20045;-66
2020/12/24 10:35:36;;;;;;;34.63;1.77;;;;;;;7.05;71.57;95752.53;5051528;28;20048;-66
2020/12/24 10:38:02;;;;;;;23.65;1.60;;;;;;;7.06;70.87;95747.91;5051327;28;20053;-67
2020/12/24 10:40:28;;;;;;;30.25;1.50;;;;;;;7.00;71.33;95744.53;5051342;28;20041;-68
2020/12/24 10:42:55;;;;;;;32.60;1.80;;;;;;;6.99;71.83;95747.53;5047320;28;20512;-66
2020/12/24 10:45:22;;;;;;;27.73;1.45;;;;;;;7.01;71.68;95735.28;5050520;28;20088;-66
2020/12/24 10:47:48;;;;;;;23.75;1.38;;;;;;;7.12;71.86;95732.34;5051283;28;20102;-66
2020/12/24 10:50:15;;;;;;;30.23;1.42;;;;;;;7.11;70.80;95728.81;5051017;28;20056;-66
2020/12/24 10:52:41;;;;;;;26.08;1.45;;;;;;;7.10;72.16;95723.69;5051325;28;20052;-66
2020/12/24 10:55:07;;;;;;;19.20;1.23;;;;;;;7.16;71.43;95725.97;5050391;28;20496;-66
2020/12/24 10:57:33;;;;;;;24.05;1.35;;;;;;;7.16;71.93;95730.59;5051287;28;20051;-66
2020/12/24 10:59:59;;;;;;;22.85;1.25;;;;;;;7.19;71.56;95714.50;5051123;28;20138;-66
2020/12/24 11:02:25;;;;;;;30.98;1.60;;;;;;;7.23;71.76;95722.81;5050819;28;20052;-66
2020/12/24 11:04:51;;;;;;;23.42;1.45;;;;;;;7.32;71.68;95723.66;5051050;28;20439;-66
2020/12/24 11:07:17;;;;;;;26.52;1.40;;;;;;;7.31;71.31;95724.78;5050585;28;20416;-66
2020/12/24 11:09:43;;;;;;;10.98;0.88;;;;;;;7.46;71.37;95710.78;5051006;28;20052;-66
2020/12/24 11:12:09;;;;;;;9.27;0.80;;;;;;;7.52;70.90;95706.84;5050703;28;20638;-66
2020/12/24 11:14:35;;;;;;;35.50;1.88;;;;;;;7.71;70.36;95703.88;5046294;28;20044;-67
2020/12/24 11:17:04;;;;;;;18.80;1.00;;;;;;;7.79;70.32;95699.59;5050732;28;20056;-68
2020/12/24 11:19:30;;;;;;;29.95;1.77;;;;;;;7.85;69.38;95701.03;5050567;28;20049;-66
2020/12/24 11:21:56;;;;;;;37.65;1.88;;;;;;;7.92;69.31;95698.63;5051000;28;20079;-66
2020/12/24 11:24:21;;;;;;;38.40;1.90;;;;;;;8.02;70.11;95692.13;5050391;28;20512;-66
2020/12/24 11:26:47;;;;;;;27.80;1.48;;;;;;;7.86;68.90;95689.06;5050926;28;20491;-69
2020/12/24 11:29:13;;;;;;;14.90;0.95;;;;;;;7.79;69.71;95684.13;5050338;28;20616;-66
2020/12/24 11:31:39;;;;;;;31.05;1.70;;;;;;;7.81;69.77;95681.09;5050965;28;20052;-66
2020/12/24 11:34:08;;;;;;;24.42;1.23;;;;;;;7.94;69.58;95673.94;5050463;28;20049;-66
2020/12/24 11:36:35;;;;;;;21.70;1.40;;;;;;;8.01;69.38;95674.25;5050771;28;20048;-66